Main page
Satellite images 10-day forecastsClimateMarine weather Cyclones Lightning AirportsFAQ Newsletter About
Weather : Europe Africa North America South America Asia Australia-Oceania Others
Languages Contact

Ciudad Del Este, Paraguay

Guaraní International Airport

latitude: 25-27-20S, longitude: 054-50-37W, elevation: 257 m


METAR: SGES 301700Z 05008KT CAVOK 29/17 Q1018
TAF: SGES 301625Z 3018/3118 06010KT CAVOK TX31/3019Z TN20/3110Z TEMPO 3018/3021 05010G18KT FM310000 05010KT CAVOK

Time: 14:07 (18:07 UTC)

Current weather observation

The report was made 1 hour and 7 minutes ago, at 17:00 UTC
Wind 8 kt from the Northeast
Temperature 29°C
Humidity 48%
Pressure 1018 hPa
Visibility 10 km or more
no clouds below 1500 m and no cumulonimbus

Change units

Forecast

The report was made 1 hour and 42 minutes ago, at 16:25 UTC
Forecast valid from 30 at 18 UTC to 31 at 18 UTC
Wind 10 kt from the East/Northeast
Visibility 10 km or more
no clouds below 1500 m and no cumulonimbus
Temporary
from 30 at 18 UTC to 30 at 21 UTC
Wind 10 kt from the Northeast with gusts up to 18 kt
From 31 at 0000 UTC
Wind 10 kt from the Northeast
Visibility 10 km or more
no clouds below 1500 m and no cumulonimbus
The information on this site is subject to a disclaimer
Weather : Europe Africa North America South America Asia Australia-Oceania Others
Satellite images 10-day forecastsClimateMarine weather Cyclones Lightning AirportsFAQ Languages Contact Newsletter About